Elk Mountain, WY (82324)

1:58 AM MST on November 27, 2014 (GMT -0700)
WYDOT | Change Station
CLOSE
Current Station
Personal Weather Station
Location: Elk Mountain, WY
Elevation: 7781 ft
Nearby Weather Stations
Active Advisory: High Wind Warning

Elev 7781 ft 41.59 °N, 106.18 °W | Updated 4 days ago

Clear
Clear
37 °F
Feels Like 25 °F
N
37
Wind Variable Wind from WSW
Gusts 52 mph

Today
High -- | Low -- °F
--% Chance of Precip.
Yesterday
High -- | Low -- °F
Precip. -- in
7:08 AM 4:37 PM
Waxing Crescent, 27% visible
Pressure 30.23 in
Visibility 10.0 miles
Clouds Clear
Windchill 25 °F
Dew Point 21 °F
Humidity 52%
Rainfall -999.00 in
Snow Depth Not available.
UV 0 out of 12
Pollen .10 out of 12
Air Quality Not available.
Flu Activity Not available.
METAR KEHY 270835Z AUTO 24023G33KT 10SM CLR 03/M05 A3023 RMK AO2

More Conditions Fewer Conditions

Pressure 30.23 in
Visibility 10.0 miles
Clouds Clear
Windchill 25 °F
Dew Point 21 °F
Humidity 52%
Rainfall -999.00 in
Snow Depth Not available.
UV 0 out of 12
Pollen .10 out of 12
Air Quality Not available.
Flu Activity Not available.
METAR KEHY 270835Z AUTO 24023G33KT 10SM CLR 03/M05 A3023 RMK AO2

More Conditions Fewer Conditions

10-Day Weather Forecast

Almanac

Astronomy

Nov. 27, 2014 Rise Set
Actual Time
Civil Twilight
Nautical Twilight
Astronomical Twilight
Moon
Length of Visible Light
Length of Day
Tomorrow will be .
, % of the Moon is Illuminated

Today's Extremes

State Highs State Lows

Community

WunderPhotos

Upload Photos

1,773,965 photos uploaded!

WunderBlogs® & News

Nearby

Air Quality

  Air Quality AQ Index Pollutant
Not available.

Snow Depth

Station Depth Elevation

Earthquake Activity

City Distance Mag. Time & Date
Minimum magnitude displayed is 2.5.

Coastal Water Temperatures

Place Temperature

Nearby Weather Stations